KACY/ACY METAR and TAF weather

Enter ICAO airport designator
Station Type Date Time Source
KACY METAR 2018/04/19 12:54 UTC NOAA

KACY 191254Z 07013KT 10SM CLR 13/04 A2962 RMK AO2 WSHFT 1151 SLP030 T01330044


Station Type Date Time Source
KACY Decoded METAR 2018/04/19 12:54 UTC NOAA

ATLANTIC CITY INTERNATIONAL, NJ, United States (KACY) 39-28N 74-35W 35M
Apr 19, 2018 - 08:54 AM EDT / 2018.04.19 1254 UTC
Wind: from the ENE (070 degrees) at 15 MPH (13 KT):0
Visibility: 10 mile(s):0
Sky conditions: clear
Temperature: 55.9 F (13.3 C)
Dew Point: 39.9 F (4.4 C)
Relative Humidity: 54%
Pressure (altimeter): 29.62 in. Hg (1003 hPa)
ob: KACY 191254Z 07013KT 10SM CLR 13/04 A2962 RMK AO2 WSHFT 1151 SLP030 T01330044
cycle: 13

Station Type Date Time Source
KACY TAF 2018/04/19 12:31 UTC NOAA

TAF KACY 191127Z 1912/2012 01010G20KT P6SM OVC035
FM191500 34012G20KT P6SM OVC035
FM191800 31012G20KT P6SM -SHRA OVC025
FM192200 31012G20KT P6SM BKN045
FM200200 30010G18KT P6SM SCT045


Example: see airport list